createdAt,value
2019-05-23T00:01:19.060Z,99.90
2019-05-23T00:03:52.353Z,99.90
2019-05-23T00:06:32.055Z,99.90
2019-05-23T00:09:02.112Z,99.90
2019-05-23T00:11:32.250Z,99.90
2019-05-23T00:14:07.523Z,99.90
2019-05-23T00:16:36.542Z,99.90
2019-05-23T00:19:06.445Z,99.90
2019-05-23T00:21:37.189Z,99.90
2019-05-23T00:24:06.279Z,99.90
2019-05-23T00:26:36.233Z,99.90
2019-05-23T00:29:09.934Z,99.90
2019-05-23T00:31:49.862Z,99.90
2019-05-23T00:34:18.959Z,99.90
2019-05-23T00:36:48.447Z,99.90
2019-05-23T00:39:17.265Z,99.90
2019-05-23T00:41:46.759Z,99.90
2019-05-23T00:44:15.759Z,99.90
2019-05-23T00:46:44.725Z,99.90
2019-05-23T00:49:14.021Z,99.90
2019-05-23T00:51:42.596Z,99.90
2019-05-23T00:54:11.157Z,99.90
2019-05-23T00:56:39.724Z,99.90
2019-05-23T00:59:24.241Z,99.90
2019-05-23T01:01:41.367Z,99.90
2019-05-23T01:04:10.856Z,99.90
2019-05-23T01:06:40.080Z,99.90
2019-05-23T01:09:08.878Z,99.90
2019-05-23T01:11:38.203Z,99.90
2019-05-23T01:14:07.002Z,99.90
2019-05-23T01:16:35.532Z,99.90
2019-05-23T01:19:04.603Z,99.90
2019-05-23T01:21:37.447Z,99.90
2019-05-23T01:24:08.198Z,99.90
2019-05-23T01:26:36.729Z,99.90
2019-05-23T01:29:06.135Z,99.90
2019-05-23T01:31:38.912Z,99.90
2019-05-23T01:34:09.103Z,99.90
2019-05-23T01:36:38.081Z,99.90
2019-05-23T01:39:10.045Z,99.90
2019-05-23T01:41:39.480Z,99.90
2019-05-23T01:44:09.894Z,99.90
2019-05-23T01:46:40.986Z,99.90
2019-05-23T01:49:09.915Z,99.90
2019-05-23T01:51:38.987Z,99.90
2019-05-23T01:54:07.518Z,99.90
2019-05-23T01:56:36.435Z,99.90
2019-05-23T01:59:06.008Z,99.90
2019-05-23T02:01:35.155Z,99.90
2019-05-23T02:04:04.359Z,99.90
2019-05-23T02:06:32.860Z,99.90
2019-05-23T02:09:01.719Z,99.90
2019-05-23T02:11:31.573Z,99.90
2019-05-23T02:14:01.038Z,99.90
2019-05-23T02:16:31.605Z,99.90
2019-05-23T02:19:00.123Z,99.90
2019-05-23T02:21:29.343Z,99.90
2019-05-23T02:23:57.854Z,99.90
2019-05-23T02:26:26.769Z,99.90
2019-05-23T02:28:55.211Z,99.90
2019-05-23T02:31:23.823Z,99.90
2019-05-23T02:33:53.310Z,99.90
2019-05-23T02:36:21.928Z,99.90
2019-05-23T02:38:52.646Z,99.90
2019-05-23T02:41:27.017Z,99.90
2019-05-23T02:43:58.255Z,99.90
2019-05-23T02:46:38.039Z,99.90
2019-05-23T02:49:08.307Z,99.90
2019-05-23T02:51:37.505Z,99.90
2019-05-23T02:54:10.122Z,99.90
2019-05-23T02:56:39.960Z,99.90
2019-05-23T02:59:15.563Z,99.90
2019-05-23T03:02:05.063Z,99.90
2019-05-23T03:04:35.256Z,99.90
2019-05-23T03:07:03.872Z,99.90
2019-05-23T03:09:34.183Z,99.90
2019-05-23T03:12:04.092Z,99.90
2019-05-23T03:14:36.478Z,99.90
2019-05-23T03:17:08.249Z,99.90
2019-05-23T03:19:45.652Z,99.90
2019-05-23T03:22:31.611Z,99.90
2019-05-23T03:25:04.357Z,99.90
2019-05-23T03:27:35.891Z,99.90
2019-05-23T03:30:08.072Z,99.90
2019-05-23T03:32:47.384Z,99.90
2019-05-23T03:35:17.949Z,99.90
2019-05-23T03:37:47.354Z,99.90
2019-05-23T03:40:16.745Z,99.90
2019-05-23T03:42:45.767Z,99.90
2019-05-23T03:45:15.074Z,99.90
2019-05-23T03:47:45.903Z,99.90
2019-05-23T03:50:15.107Z,99.90
2019-05-23T03:52:43.880Z,99.90
2019-05-23T03:55:13.674Z,99.90
2019-05-23T03:57:43.029Z,99.90
2019-05-23T04:00:14.655Z,99.90
2019-05-23T04:02:44.167Z,99.90
2019-05-23T04:05:13.931Z,99.90
2019-05-23T04:07:42.651Z,99.90
2019-05-23T04:10:12.308Z,99.90
2019-05-23T04:12:40.770Z,99.90
2019-05-23T04:15:11.040Z,99.90
2019-05-23T04:17:39.851Z,99.90
2019-05-23T04:20:09.182Z,99.90
2019-05-23T04:22:38.140Z,99.90
2019-05-23T04:25:09.162Z,99.90
2019-05-23T04:27:38.190Z,99.90
2019-05-23T04:30:10.326Z,99.90
2019-05-23T04:32:39.416Z,99.90
2019-05-23T04:35:09.191Z,99.90
2019-05-23T04:37:37.659Z,99.90
2019-05-23T04:40:09.191Z,99.90
2019-05-23T04:42:37.707Z,99.90
2019-05-23T04:45:06.683Z,99.90
2019-05-23T04:47:36.132Z,99.90
2019-05-23T04:50:13.871Z,99.90
2019-05-23T04:52:42.987Z,99.90
2019-05-23T04:55:12.831Z,99.90
2019-05-23T04:57:42.534Z,99.90
2019-05-23T05:00:15.438Z,99.90
2019-05-23T05:02:45.377Z,99.90
2019-05-23T05:05:15.579Z,99.90
2019-05-23T05:07:44.680Z,99.90
2019-05-23T05:10:17.136Z,99.90
2019-05-23T05:12:45.743Z,99.90
2019-05-23T05:15:14.334Z,99.90
2019-05-23T05:17:43.039Z,99.90
2019-05-23T05:20:12.046Z,99.90
2019-05-23T05:22:41.035Z,99.90
2019-05-23T05:25:10.748Z,99.90
2019-05-23T05:27:39.703Z,99.90
2019-05-23T05:30:09.900Z,99.90
2019-05-23T05:32:44.561Z,99.90
2019-05-23T05:35:09.518Z,99.90
2019-05-23T05:37:38.063Z,99.90
2019-05-23T05:40:08.042Z,99.90
2019-05-23T05:42:38.989Z,99.90
2019-05-23T05:45:12.035Z,99.90
2019-05-23T05:47:40.892Z,99.90
2019-05-23T05:50:10.805Z,99.90
2019-05-23T05:52:40.064Z,99.90
2019-05-23T05:55:09.730Z,99.90
2019-05-23T05:57:38.203Z,99.90
2019-05-23T06:00:27.628Z,99.90
2019-05-23T06:03:04.450Z,99.90
2019-05-23T06:05:41.302Z,99.90
2019-05-23T06:08:11.628Z,99.90
2019-05-23T06:10:40.193Z,99.90
2019-05-23T06:13:08.885Z,99.90
2019-05-23T06:15:37.327Z,99.90
2019-05-23T06:18:06.211Z,99.90
2019-05-23T06:20:40.612Z,99.90
2019-05-23T06:23:09.446Z,99.90
2019-05-23T06:25:37.978Z,99.90
2019-05-23T06:28:06.595Z,99.90
2019-05-23T06:30:36.688Z,99.90
2019-05-23T06:33:21.730Z,99.90
2019-05-23T06:35:36.196Z,99.90
2019-05-23T06:38:05.246Z,99.90
2019-05-23T06:40:34.719Z,99.90
2019-05-23T06:43:03.754Z,99.90
2019-05-23T06:45:32.463Z,99.90
2019-05-23T06:48:01.164Z,99.90
2019-05-23T06:50:29.793Z,99.90
2019-05-23T06:52:58.980Z,99.90
2019-05-23T06:55:27.495Z,99.90
2019-05-23T06:57:57.291Z,99.90
2019-05-23T07:00:27.379Z,99.90
2019-05-23T07:02:55.837Z,99.90
2019-05-23T07:05:27.752Z,99.90
2019-05-23T07:07:56.425Z,99.90
2019-05-23T07:10:25.653Z,99.90
2019-05-23T07:12:54.116Z,99.90
2019-05-23T07:15:23.875Z,99.90
2019-05-23T07:17:52.332Z,99.90
2019-05-23T07:20:21.402Z,99.90
2019-05-23T07:22:49.956Z,99.90
2019-05-23T07:25:18.575Z,99.90
2019-05-23T07:27:47.183Z,99.90
2019-05-23T07:30:24.591Z,99.90
2019-05-23T07:32:53.261Z,99.90
2019-05-23T07:35:21.805Z,99.90
2019-05-23T07:37:50.319Z,99.90
2019-05-23T07:40:19.058Z,99.90
2019-05-23T07:42:48.253Z,99.90
2019-05-23T07:45:21.320Z,99.90
2019-05-23T07:47:49.903Z,99.90
2019-05-23T07:50:18.922Z,99.90
2019-05-23T07:52:48.292Z,99.90
2019-05-23T07:55:21.698Z,99.90
2019-05-23T07:57:50.262Z,99.90
2019-05-23T08:00:20.969Z,99.90
2019-05-23T08:02:51.179Z,99.90
2019-05-23T08:05:20.409Z,99.90
2019-05-23T08:07:49.132Z,99.90
2019-05-23T08:10:32.527Z,99.90
2019-05-23T08:12:48.496Z,99.90
2019-05-23T08:15:17.616Z,99.90
2019-05-23T08:17:46.144Z,99.90
2019-05-23T08:20:15.496Z,99.90
2019-05-23T08:22:44.794Z,99.90
2019-05-23T08:25:13.359Z,99.90
2019-05-23T08:27:42.396Z,99.90
2019-05-23T08:30:11.566Z,99.90
2019-05-23T08:32:40.248Z,99.90
2019-05-23T08:35:09.164Z,99.90
2019-05-23T08:37:39.709Z,99.90
2019-05-23T08:40:10.329Z,99.90
2019-05-23T08:42:39.505Z,99.90
2019-05-23T08:45:10.165Z,99.90
2019-05-23T08:47:38.834Z,99.90
2019-05-23T08:50:11.933Z,99.90
2019-05-23T08:52:40.523Z,99.90
2019-05-23T08:55:23.339Z,99.90
2019-05-23T08:57:53.697Z,99.90
2019-05-23T09:00:24.408Z,99.90
2019-05-23T09:02:53.510Z,99.90
2019-05-23T09:05:23.602Z,99.90
2019-05-23T09:07:52.644Z,99.90
2019-05-23T09:10:21.684Z,99.90
2019-05-23T09:12:50.196Z,99.90
2019-05-23T09:15:19.194Z,99.90
2019-05-23T09:17:53.358Z,99.90
2019-05-23T09:20:18.627Z,99.90
2019-05-23T09:22:47.076Z,99.90
2019-05-23T09:25:16.282Z,99.90
2019-05-23T09:27:45.383Z,99.90
2019-05-23T09:30:14.594Z,99.90
2019-05-23T09:32:44.021Z,99.90
2019-05-23T09:35:20.854Z,99.90
2019-05-23T09:37:44.946Z,99.90
2019-05-23T09:40:13.639Z,99.90
2019-05-23T09:42:42.155Z,99.90
2019-05-23T09:45:10.863Z,99.90
2019-05-23T09:47:39.689Z,99.90
2019-05-23T09:50:11.827Z,99.90
2019-05-23T09:52:40.443Z,99.90
2019-05-23T09:55:09.047Z,99.90
2019-05-23T09:57:37.703Z,99.90
2019-05-23T10:00:09.244Z,99.90
2019-05-23T10:02:37.801Z,99.90
2019-05-23T10:05:13.326Z,99.90
2019-05-23T10:07:42.088Z,99.90
2019-05-23T10:10:11.718Z,99.90
2019-05-23T10:12:40.277Z,99.90
2019-05-23T10:15:11.615Z,99.90
2019-05-23T10:17:40.194Z,99.90
2019-05-23T10:20:09.354Z,99.90
2019-05-23T10:22:37.855Z,99.90
2019-05-23T10:25:06.949Z,99.90
2019-05-23T10:27:35.696Z,99.90
2019-05-23T10:30:07.453Z,99.90
2019-05-23T10:32:36.047Z,99.90
2019-05-23T10:35:06.272Z,99.90
2019-05-23T10:37:34.718Z,99.90
2019-05-23T10:40:03.529Z,99.90
2019-05-23T10:42:32.377Z,99.90
2019-05-23T10:45:00.898Z,99.90
2019-05-23T10:47:29.593Z,99.90
2019-05-23T10:49:58.401Z,99.90
2019-05-23T10:52:27.019Z,99.90
2019-05-23T10:54:55.551Z,99.90
2019-05-23T10:57:24.939Z,99.90
2019-05-23T10:59:53.407Z,99.90
2019-05-23T11:02:22.209Z,99.90
2019-05-23T11:04:51.116Z,99.90
2019-05-23T11:07:19.694Z,99.90
2019-05-23T11:09:48.166Z,99.90
2019-05-23T11:12:17.504Z,99.90
2019-05-23T11:14:46.143Z,99.90
2019-05-23T11:17:14.885Z,99.90
2019-05-23T11:19:43.818Z,99.90
2019-05-23T11:22:12.437Z,99.90
2019-05-23T11:24:41.016Z,99.90
2019-05-23T11:27:09.534Z,99.90
2019-05-23T11:29:38.076Z,99.90
2019-05-23T11:32:08.295Z,99.90
2019-05-23T11:34:36.889Z,99.90
2019-05-23T11:37:05.463Z,99.90
2019-05-23T11:39:34.046Z,99.90
2019-05-23T11:42:02.643Z,99.90
2019-05-23T11:44:31.235Z,99.90
2019-05-23T11:46:59.871Z,99.90
2019-05-23T11:49:28.467Z,99.90
2019-05-23T11:51:57.058Z,99.90
2019-05-23T11:54:25.811Z,99.90
2019-05-23T11:56:55.911Z,99.90
2019-05-23T11:59:24.368Z,99.90
2019-05-23T12:02:04.167Z,99.90
2019-05-23T12:04:34.822Z,99.90
2019-05-23T12:07:09.556Z,99.90
2019-05-23T12:09:38.318Z,99.90
2019-05-23T12:12:06.932Z,99.90
2019-05-23T12:14:35.603Z,99.90
2019-05-23T12:17:04.432Z,99.90
2019-05-23T12:19:33.259Z,99.90
2019-05-23T12:22:01.775Z,99.90
2019-05-23T12:24:34.808Z,99.90
2019-05-23T12:27:00.758Z,99.90
2019-05-23T12:29:29.191Z,99.90
2019-05-23T12:31:57.982Z,99.90
2019-05-23T12:34:26.523Z,99.90
2019-05-23T12:37:14.203Z,99.90
2019-05-23T12:39:25.409Z,99.90
2019-05-23T12:41:53.971Z,99.90
2019-05-23T12:44:22.614Z,99.90
2019-05-23T12:46:51.500Z,99.90
2019-05-23T12:49:24.392Z,99.90
2019-05-23T12:51:54.523Z,99.90
2019-05-23T12:54:23.312Z,99.90
2019-05-23T12:56:52.237Z,99.90
2019-05-23T12:59:20.914Z,99.90
2019-05-23T13:01:51.274Z,99.90
2019-05-23T13:04:20.309Z,99.90
2019-05-23T13:06:49.922Z,99.90
2019-05-23T13:09:18.690Z,99.90
2019-05-23T13:11:47.428Z,99.90
2019-05-23T13:14:16.385Z,99.90
2019-05-23T13:16:45.218Z,99.90
2019-05-23T13:19:13.903Z,99.90
2019-05-23T13:21:42.450Z,99.90
2019-05-23T13:24:11.092Z,99.90
2019-05-23T13:26:39.914Z,99.90
2019-05-23T13:29:08.614Z,99.90
2019-05-23T13:31:37.331Z,99.90
2019-05-23T13:34:06.242Z,99.90
2019-05-23T13:36:34.703Z,99.90
2019-05-23T13:39:04.530Z,99.90
2019-05-23T13:41:33.170Z,99.90
2019-05-23T13:44:01.703Z,99.90
2019-05-23T13:46:30.354Z,99.90
2019-05-23T13:48:59.146Z,99.90
2019-05-23T13:51:27.938Z,99.90
2019-05-23T13:53:56.450Z,99.90
2019-05-23T13:56:24.982Z,99.90
2019-05-23T13:58:53.579Z,99.90
2019-05-23T14:01:22.283Z,99.90
2019-05-23T14:03:50.800Z,99.90
2019-05-23T14:06:19.394Z,99.90
2019-05-23T14:08:47.916Z,99.90
2019-05-23T14:11:16.455Z,99.90
2019-05-23T14:13:45.711Z,99.90
2019-05-23T14:16:14.482Z,99.90
2019-05-23T14:18:43.116Z,99.90
2019-05-23T14:21:11.811Z,99.90
2019-05-23T14:23:40.353Z,99.90
2019-05-23T14:26:09.038Z,99.90
2019-05-23T14:28:37.765Z,99.90
2019-05-23T14:31:08.086Z,99.90
2019-05-23T14:33:50.358Z,99.90
2019-05-23T14:36:38.179Z,99.90
2019-05-23T14:39:09.923Z,99.90
2019-05-23T14:41:46.149Z,99.90
2019-05-23T14:44:15.060Z,99.90
2019-05-23T14:46:45.140Z,99.90
2019-05-23T14:49:21.667Z,99.90
2019-05-23T14:51:54.582Z,99.90
2019-05-23T14:54:24.660Z,99.90
2019-05-23T14:56:53.269Z,99.90
2019-05-23T14:59:21.811Z,99.90
2019-05-23T15:01:50.499Z,99.90
2019-05-23T15:04:19.028Z,99.90
2019-05-23T15:06:47.540Z,99.90
2019-05-23T15:09:16.037Z,99.90
2019-05-23T15:11:44.592Z,99.90
2019-05-23T15:14:13.095Z,99.90
2019-05-23T15:16:41.740Z,99.90
2019-05-23T15:19:10.240Z,99.90
2019-05-23T15:21:38.714Z,99.90
2019-05-23T15:24:07.380Z,99.90
2019-05-23T15:26:36.097Z,99.90
2019-05-23T15:29:04.917Z,99.90
2019-05-23T15:31:33.492Z,99.90
2019-05-23T15:34:02.218Z,99.90
2019-05-23T15:36:31.029Z,99.90
2019-05-23T15:39:09.451Z,99.90
2019-05-23T15:41:29.896Z,99.90
2019-05-23T15:43:58.563Z,99.90
2019-05-23T15:46:27.105Z,99.90
2019-05-23T15:48:55.699Z,99.90
2019-05-23T15:51:25.935Z,99.90
2019-05-23T15:53:56.114Z,99.90
2019-05-23T15:56:28.442Z,99.90
2019-05-23T15:59:07.060Z,99.90
2019-05-23T16:01:37.164Z,99.90
2019-05-23T16:04:13.010Z,99.90
2019-05-23T16:06:42.002Z,99.90
2019-05-23T16:09:27.464Z,99.90
2019-05-23T16:11:43.194Z,99.90
2019-05-23T16:14:11.816Z,99.90
2019-05-23T16:16:40.912Z,99.90
2019-05-23T16:19:09.355Z,99.90
2019-05-23T16:21:38.480Z,99.90
2019-05-23T16:24:07.802Z,99.90
2019-05-23T16:26:36.553Z,99.90
2019-05-23T16:29:06.405Z,99.90
2019-05-23T16:31:34.941Z,99.90
2019-05-23T16:34:03.543Z,99.90
2019-05-23T16:36:32.456Z,99.40
2019-05-23T16:39:00.918Z,99.90
2019-05-23T16:41:29.402Z,99.70
2019-05-23T16:43:57.939Z,99.30
2019-05-23T16:46:26.449Z,99.90
2019-05-23T16:48:54.975Z,99.90
2019-05-23T16:51:23.488Z,98.80
2019-05-23T16:53:52.086Z,99.90
2019-05-23T16:56:22.594Z,98.20
2019-05-23T16:59:03.599Z,97.50
2019-05-23T17:01:57.847Z,97.40
2019-05-23T17:04:26.318Z,98.50
2019-05-23T17:06:56.477Z,98.80
2019-05-23T17:09:31.710Z,99.00
2019-05-23T17:12:15.961Z,99.10
2019-05-23T17:14:55.182Z,99.90
2019-05-23T17:17:49.088Z,99.70
2019-05-23T17:20:19.250Z,99.90
2019-05-23T17:22:49.815Z,98.70
2019-05-23T17:25:19.928Z,99.70
2019-05-23T17:28:01.931Z,99.80
2019-05-23T17:30:46.928Z,99.90
2019-05-23T17:33:15.467Z,99.50
2019-05-23T17:35:43.915Z,99.90
2019-05-23T17:38:12.402Z,99.90
2019-05-23T17:40:40.979Z,99.90
2019-05-23T17:43:09.557Z,99.90
2019-05-23T17:45:38.369Z,99.90
2019-05-23T17:48:07.111Z,99.90
2019-05-23T17:50:35.635Z,99.90
2019-05-23T17:53:04.187Z,99.90
2019-05-23T17:55:32.990Z,99.90
2019-05-23T17:58:02.172Z,99.90
2019-05-23T18:00:38.579Z,99.90
2019-05-23T18:03:08.061Z,99.90
2019-05-23T18:05:36.880Z,99.90
2019-05-23T18:08:05.774Z,99.90
2019-05-23T18:10:44.637Z,99.90
2019-05-23T18:13:05.673Z,99.90
2019-05-23T18:15:34.469Z,99.90
2019-05-23T18:18:02.983Z,99.90
2019-05-23T18:20:32.963Z,99.90
2019-05-23T18:23:01.943Z,99.90
2019-05-23T18:25:30.890Z,99.90
2019-05-23T18:27:59.819Z,99.90
2019-05-23T18:30:32.686Z,99.90
2019-05-23T18:33:01.867Z,99.90
2019-05-23T18:35:31.027Z,99.90
2019-05-23T18:38:00.168Z,99.90
2019-05-23T18:40:28.924Z,99.90
2019-05-23T18:42:57.642Z,99.90
2019-05-23T18:45:27.219Z,99.90
2019-05-23T18:47:56.035Z,99.90
2019-05-23T18:50:24.504Z,99.90
2019-05-23T18:52:53.199Z,99.90
2019-05-23T18:55:22.235Z,99.90
2019-05-23T18:57:50.690Z,99.90
2019-05-23T19:00:22.220Z,99.90
2019-05-23T19:02:51.149Z,99.90
2019-05-23T19:05:19.655Z,99.90
2019-05-23T19:07:48.122Z,99.90
2019-05-23T19:10:18.010Z,99.90
2019-05-23T19:12:46.826Z,99.90
2019-05-23T19:15:15.349Z,99.90
2019-05-23T19:17:43.791Z,99.90
2019-05-23T19:20:12.407Z,99.90
2019-05-23T19:22:40.951Z,99.90
2019-05-23T19:25:11.186Z,99.90
2019-05-23T19:27:39.898Z,99.90
2019-05-23T19:30:08.976Z,99.90
2019-05-23T19:32:37.491Z,99.90
2019-05-23T19:35:06.538Z,99.90
2019-05-23T19:37:35.260Z,99.90
2019-05-23T19:40:05.449Z,99.90
2019-05-23T19:42:33.961Z,99.90
2019-05-23T19:45:02.444Z,99.90
2019-05-23T19:47:31.095Z,99.90
2019-05-23T19:49:59.699Z,99.90
2019-05-23T19:52:28.229Z,99.90
2019-05-23T19:54:57.953Z,99.90
2019-05-23T19:57:30.797Z,99.90
2019-05-23T19:59:58.007Z,99.90
2019-05-23T20:02:40.226Z,99.90
2019-05-23T20:05:10.833Z,99.90
2019-05-23T20:07:39.413Z,99.90
2019-05-23T20:10:09.160Z,99.90
2019-05-23T20:12:37.634Z,99.90
2019-05-23T20:15:07.302Z,99.90
2019-05-23T20:17:35.833Z,99.90
2019-05-23T20:20:06.764Z,99.90
2019-05-23T20:22:35.249Z,99.90
2019-05-23T20:25:04.928Z,99.90
2019-05-23T20:27:33.444Z,99.90
2019-05-23T20:30:01.896Z,99.90
2019-05-23T20:32:30.415Z,99.90
2019-05-23T20:34:58.866Z,99.90
2019-05-23T20:37:27.645Z,99.90
2019-05-23T20:39:56.091Z,99.90
2019-05-23T20:42:25.329Z,99.90
2019-05-23T20:44:53.771Z,99.90
2019-05-23T20:47:22.455Z,99.90
2019-05-23T20:49:51.008Z,99.90
2019-05-23T20:52:19.516Z,99.90
2019-05-23T20:54:47.971Z,99.90
2019-05-23T20:57:16.659Z,99.90
2019-05-23T20:59:45.132Z,99.90
2019-05-23T21:02:13.812Z,99.90
2019-05-23T21:04:42.275Z,99.90
2019-05-23T21:07:11.184Z,99.90
2019-05-23T21:09:39.787Z,99.90
2019-05-23T21:12:08.621Z,99.90
2019-05-23T21:14:37.191Z,99.90
2019-05-23T21:17:05.698Z,99.90
2019-05-23T21:19:34.308Z,99.90
2019-05-23T21:22:02.857Z,99.90
2019-05-23T21:24:32.467Z,99.90
2019-05-23T21:27:01.053Z,99.90
2019-05-23T21:29:29.535Z,99.90
2019-05-23T21:31:58.007Z,99.90
2019-05-23T21:34:26.447Z,99.90
2019-05-23T21:36:54.918Z,99.90
2019-05-23T21:39:23.434Z,99.90
2019-05-23T21:41:51.906Z,99.90
2019-05-23T21:44:20.417Z,99.90
2019-05-23T21:46:49.401Z,99.90
2019-05-23T21:49:17.835Z,99.90
2019-05-23T21:51:46.272Z,99.90
2019-05-23T21:54:14.957Z,99.90
2019-05-23T21:56:43.393Z,99.90
2019-05-23T21:59:11.848Z,99.90
2019-05-23T22:01:44.951Z,99.90
2019-05-23T22:04:26.971Z,99.90
2019-05-23T22:06:59.972Z,99.90
2019-05-23T22:09:28.423Z,99.90
2019-05-23T22:11:56.932Z,99.90
2019-05-23T22:14:25.426Z,99.90
2019-05-23T22:16:54.716Z,99.90
2019-05-23T22:19:23.725Z,99.90
2019-05-23T22:21:52.846Z,99.90
2019-05-23T22:24:21.287Z,99.90
2019-05-23T22:26:49.874Z,99.90
2019-05-23T22:29:18.563Z,99.90
2019-05-23T22:31:47.049Z,99.90
2019-05-23T22:34:17.263Z,99.90
2019-05-23T22:36:45.865Z,99.90
2019-05-23T22:39:14.469Z,99.90
2019-05-23T22:41:43.020Z,99.90
2019-05-23T22:44:11.635Z,99.90
2019-05-23T22:46:40.578Z,99.90
2019-05-23T22:49:09.031Z,99.90
2019-05-23T22:51:37.514Z,99.90
2019-05-23T22:54:06.185Z,99.90
2019-05-23T22:56:34.660Z,99.90
2019-05-23T22:59:03.348Z,99.90
2019-05-23T23:01:32.074Z,99.90
2019-05-23T23:04:00.531Z,99.90
2019-05-23T23:06:29.159Z,99.90
2019-05-23T23:08:57.623Z,99.90
2019-05-23T23:11:26.335Z,99.90
2019-05-23T23:13:54.846Z,99.90
2019-05-23T23:16:23.309Z,99.90
2019-05-23T23:18:51.838Z,99.90
2019-05-23T23:21:20.376Z,99.90
2019-05-23T23:23:48.909Z,99.90
2019-05-23T23:26:17.495Z,99.90
2019-05-23T23:28:45.988Z,99.90
2019-05-23T23:31:14.516Z,99.90
2019-05-23T23:33:42.967Z,99.90
2019-05-23T23:36:11.545Z,99.90
2019-05-23T23:38:40.135Z,99.90
2019-05-23T23:41:08.598Z,99.90
2019-05-23T23:43:37.073Z,99.90
2019-05-23T23:46:23.294Z,99.90
2019-05-23T23:49:09.679Z,99.90
2019-05-23T23:51:56.114Z,99.90
2019-05-23T23:54:42.563Z,99.90
2019-05-23T23:57:28.999Z,99.90
2019-05-23T23:59:59.119Z,99.90
